sensor_id;sensor_type;location;lat;lon;timestamp;P1;durP1;ratioP1;P2;durP2;ratioP2
46411;SDS011;32113;42.012;24.870;2022-08-24T00:02:01;9.52;;;8.15;;
46411;SDS011;32113;42.012;24.870;2022-08-24T00:04:27;8.98;;;8.05;;
46411;SDS011;32113;42.012;24.870;2022-08-24T00:06:53;15.98;;;9.40;;
46411;SDS011;32113;42.012;24.870;2022-08-24T00:09:19;9.40;;;8.48;;
46411;SDS011;32113;42.012;24.870;2022-08-24T00:11:45;10.10;;;9.05;;
46411;SDS011;32113;42.012;24.870;2022-08-24T00:14:11;10.20;;;9.20;;
46411;SDS011;32113;42.012;24.870;2022-08-24T00:16:37;10.02;;;9.02;;
46411;SDS011;32113;42.012;24.870;2022-08-24T00:19:03;10.80;;;9.52;;
46411;SDS011;32113;42.012;24.870;2022-08-24T00:21:29;12.80;;;9.25;;
46411;SDS011;32113;42.012;24.870;2022-08-24T00:23:55;15.13;;;10.00;;
46411;SDS011;32113;42.012;24.870;2022-08-24T00:26:20;11.32;;;9.55;;
46411;SDS011;32113;42.012;24.870;2022-08-24T00:28:46;17.77;;;10.65;;
46411;SDS011;32113;42.012;24.870;2022-08-24T00:31:12;12.45;;;9.52;;
46411;SDS011;32113;42.012;24.870;2022-08-24T00:33:38;18.17;;;9.90;;
46411;SDS011;32113;42.012;24.870;2022-08-24T00:36:05;17.05;;;10.18;;
46411;SDS011;32113;42.012;24.870;2022-08-24T00:38:31;13.82;;;10.48;;
46411;SDS011;32113;42.012;24.870;2022-08-24T00:40:59;16.90;;;12.00;;
46411;SDS011;32113;42.012;24.870;2022-08-24T00:43:25;18.67;;;15.05;;
46411;SDS011;32113;42.012;24.870;2022-08-24T00:46:02;20.85;;;14.88;;
46411;SDS011;32113;42.012;24.870;2022-08-24T00:48:39;22.00;;;14.93;;
46411;SDS011;32113;42.012;24.870;2022-08-24T00:51:19;18.95;;;13.13;;
46411;SDS011;32113;42.012;24.870;2022-08-24T00:53:55;18.63;;;13.60;;
46411;SDS011;32113;42.012;24.870;2022-08-24T00:56:27;21.25;;;13.07;;
46411;SDS011;32113;42.012;24.870;2022-08-24T00:58:56;16.40;;;12.68;;
46411;SDS011;32113;42.012;24.870;2022-08-24T01:01:26;17.13;;;13.23;;
46411;SDS011;32113;42.012;24.870;2022-08-24T01:03:54;16.42;;;12.82;;
46411;SDS011;32113;42.012;24.870;2022-08-24T01:06:21;20.52;;;12.38;;
46411;SDS011;32113;42.012;24.870;2022-08-24T01:08:47;14.50;;;11.50;;
46411;SDS011;32113;42.012;24.870;2022-08-24T01:11:14;17.55;;;11.70;;
46411;SDS011;32113;42.012;24.870;2022-08-24T01:13:44;18.33;;;12.88;;
46411;SDS011;32113;42.012;24.870;2022-08-24T01:16:13;18.20;;;12.00;;
46411;SDS011;32113;42.012;24.870;2022-08-24T01:21:33;15.50;;;11.05;;
46411;SDS011;32113;42.012;24.870;2022-08-24T01:24:09;13.93;;;11.02;;
46411;SDS011;32113;42.012;24.870;2022-08-24T01:26:47;16.50;;;11.60;;
46411;SDS011;32113;42.012;24.870;2022-08-24T01:29:17;16.10;;;11.80;;
46411;SDS011;32113;42.012;24.870;2022-08-24T01:31:45;16.05;;;11.07;;
46411;SDS011;32113;42.012;24.870;2022-08-24T01:34:10;17.80;;;11.95;;
46411;SDS011;32113;42.012;24.870;2022-08-24T01:39:05;15.70;;;10.85;;
46411;SDS011;32113;42.012;24.870;2022-08-24T01:41:35;13.88;;;11.35;;
46411;SDS011;32113;42.012;24.870;2022-08-24T01:44:01;17.13;;;11.50;;
46411;SDS011;32113;42.012;24.870;2022-08-24T01:46:26;15.43;;;10.55;;
46411;SDS011;32113;42.012;24.870;2022-08-24T01:48:52;13.63;;;10.77;;
46411;SDS011;32113;42.012;24.870;2022-08-24T01:51:17;17.45;;;11.85;;
46411;SDS011;32113;42.012;24.870;2022-08-24T01:53:45;17.42;;;11.23;;
46411;SDS011;32113;42.012;24.870;2022-08-24T01:56:10;16.20;;;11.10;;
46411;SDS011;32113;42.012;24.870;2022-08-24T01:58:41;17.60;;;11.30;;
46411;SDS011;32113;42.012;24.870;2022-08-24T02:01:08;17.15;;;11.80;;
46411;SDS011;32113;42.012;24.870;2022-08-24T02:03:33;15.93;;;11.68;;
46411;SDS011;32113;42.012;24.870;2022-08-24T02:05:59;14.93;;;11.45;;
46411;SDS011;32113;42.012;24.870;2022-08-24T02:08:24;17.55;;;11.98;;
46411;SDS011;32113;42.012;24.870;2022-08-24T02:10:50;16.10;;;11.90;;
46411;SDS011;32113;42.012;24.870;2022-08-24T02:13:15;13.52;;;11.85;;
46411;SDS011;32113;42.012;24.870;2022-08-24T02:15:41;16.42;;;11.43;;
46411;SDS011;32113;42.012;24.870;2022-08-24T02:18:07;16.48;;;11.05;;
46411;SDS011;32113;42.012;24.870;2022-08-24T02:20:34;16.35;;;11.50;;
46411;SDS011;32113;42.012;24.870;2022-08-24T02:23:00;18.23;;;12.73;;
46411;SDS011;32113;42.012;24.870;2022-08-24T02:25:27;15.43;;;11.65;;
46411;SDS011;32113;42.012;24.870;2022-08-24T02:27:55;18.02;;;11.45;;
46411;SDS011;32113;42.012;24.870;2022-08-24T02:30:22;17.17;;;11.50;;
46411;SDS011;32113;42.012;24.870;2022-08-24T02:32:47;16.23;;;11.60;;
46411;SDS011;32113;42.012;24.870;2022-08-24T02:35:13;14.57;;;11.68;;
46411;SDS011;32113;42.012;24.870;2022-08-24T02:37:38;16.52;;;12.02;;
46411;SDS011;32113;42.012;24.870;2022-08-24T02:40:05;14.60;;;12.35;;
46411;SDS011;32113;42.012;24.870;2022-08-24T02:42:31;17.83;;;12.48;;
46411;SDS011;32113;42.012;24.870;2022-08-24T02:44:58;14.88;;;12.20;;
46411;SDS011;32113;42.012;24.870;2022-08-24T02:47:24;21.67;;;13.52;;
46411;SDS011;32113;42.012;24.870;2022-08-24T02:49:50;14.52;;;12.18;;
46411;SDS011;32113;42.012;24.870;2022-08-24T02:52:15;17.88;;;12.52;;
46411;SDS011;32113;42.012;24.870;2022-08-24T02:54:41;18.90;;;13.57;;
46411;SDS011;32113;42.012;24.870;2022-08-24T02:57:06;15.77;;;12.88;;
46411;SDS011;32113;42.012;24.870;2022-08-24T02:59:32;17.92;;;12.85;;
46411;SDS011;32113;42.012;24.870;2022-08-24T03:01:57;16.88;;;12.27;;
46411;SDS011;32113;42.012;24.870;2022-08-24T03:04:22;18.05;;;12.45;;
46411;SDS011;32113;42.012;24.870;2022-08-24T03:06:48;15.13;;;12.63;;
46411;SDS011;32113;42.012;24.870;2022-08-24T03:09:14;21.73;;;13.23;;
46411;SDS011;32113;42.012;24.870;2022-08-24T03:11:40;15.23;;;12.55;;
46411;SDS011;32113;42.012;24.870;2022-08-24T03:14:06;15.32;;;12.95;;
46411;SDS011;32113;42.012;24.870;2022-08-24T03:16:32;17.23;;;12.60;;
46411;SDS011;32113;42.012;24.870;2022-08-24T03:18:58;18.80;;;13.35;;
46411;SDS011;32113;42.012;24.870;2022-08-24T03:21:24;16.92;;;12.68;;
46411;SDS011;32113;42.012;24.870;2022-08-24T03:23:50;18.70;;;14.25;;
46411;SDS011;32113;42.012;24.870;2022-08-24T03:26:16;16.38;;;13.38;;
46411;SDS011;32113;42.012;24.870;2022-08-24T03:28:41;19.80;;;14.23;;
46411;SDS011;32113;42.012;24.870;2022-08-24T03:31:07;19.38;;;14.43;;
46411;SDS011;32113;42.012;24.870;2022-08-24T03:33:33;18.20;;;13.60;;
46411;SDS011;32113;42.012;24.870;2022-08-24T03:35:58;18.90;;;13.80;;
46411;SDS011;32113;42.012;24.870;2022-08-24T03:38:24;21.45;;;14.60;;
46411;SDS011;32113;42.012;24.870;2022-08-24T03:40:50;18.83;;;13.95;;
46411;SDS011;32113;42.012;24.870;2022-08-24T03:43:16;16.90;;;14.93;;
46411;SDS011;32113;42.012;24.870;2022-08-24T03:46:00;19.60;;;14.35;;
46411;SDS011;32113;42.012;24.870;2022-08-24T03:48:31;15.77;;;14.07;;
46411;SDS011;32113;42.012;24.870;2022-08-24T03:50:56;16.95;;;14.40;;
46411;SDS011;32113;42.012;24.870;2022-08-24T03:53:22;19.65;;;14.63;;
46411;SDS011;32113;42.012;24.870;2022-08-24T03:55:47;21.50;;;14.30;;
46411;SDS011;32113;42.012;24.870;2022-08-24T03:58:13;19.67;;;13.80;;
46411;SDS011;32113;42.012;24.870;2022-08-24T04:00:39;16.90;;;12.73;;
46411;SDS011;32113;42.012;24.870;2022-08-24T04:05:32;19.52;;;13.75;;
46411;SDS011;32113;42.012;24.870;2022-08-24T04:07:58;19.13;;;14.13;;
46411;SDS011;32113;42.012;24.870;2022-08-24T04:10:23;19.42;;;13.30;;
46411;SDS011;32113;42.012;24.870;2022-08-24T04:12:48;20.23;;;14.20;;
46411;SDS011;32113;42.012;24.870;2022-08-24T04:15:14;18.27;;;12.63;;
46411;SDS011;32113;42.012;24.870;2022-08-24T04:17:39;17.35;;;12.55;;
46411;SDS011;32113;42.012;24.870;2022-08-24T04:20:05;18.10;;;12.38;;
46411;SDS011;32113;42.012;24.870;2022-08-24T04:22:31;20.63;;;12.35;;
46411;SDS011;32113;42.012;24.870;2022-08-24T04:24:59;15.38;;;11.80;;
46411;SDS011;32113;42.012;24.870;2022-08-24T04:27:24;17.40;;;12.50;;
46411;SDS011;32113;42.012;24.870;2022-08-24T04:29:50;16.95;;;12.82;;
46411;SDS011;32113;42.012;24.870;2022-08-24T04:32:15;18.05;;;12.80;;
46411;SDS011;32113;42.012;24.870;2022-08-24T04:34:41;16.88;;;12.27;;
46411;SDS011;32113;42.012;24.870;2022-08-24T04:37:07;13.93;;;11.80;;
46411;SDS011;32113;42.012;24.870;2022-08-24T04:39:33;19.83;;;13.23;;
46411;SDS011;32113;42.012;24.870;2022-08-24T04:41:59;19.27;;;13.13;;
46411;SDS011;32113;42.012;24.870;2022-08-24T04:44:24;15.75;;;13.07;;
46411;SDS011;32113;42.012;24.870;2022-08-24T04:46:50;21.30;;;13.43;;
46411;SDS011;32113;42.012;24.870;2022-08-24T04:49:15;24.75;;;14.43;;
46411;SDS011;32113;42.012;24.870;2022-08-24T04:51:41;20.88;;;13.77;;
46411;SDS011;32113;42.012;24.870;2022-08-24T04:54:06;22.20;;;13.13;;
46411;SDS011;32113;42.012;24.870;2022-08-24T04:56:32;21.02;;;14.10;;
46411;SDS011;32113;42.012;24.870;2022-08-24T04:58:58;22.45;;;13.77;;
46411;SDS011;32113;42.012;24.870;2022-08-24T05:01:24;23.52;;;13.95;;
46411;SDS011;32113;42.012;24.870;2022-08-24T05:03:53;23.30;;;14.63;;
46411;SDS011;32113;42.012;24.870;2022-08-24T05:06:20;22.10;;;14.52;;
46411;SDS011;32113;42.012;24.870;2022-08-24T05:08:48;17.77;;;13.18;;
46411;SDS011;32113;42.012;24.870;2022-08-24T05:11:14;19.75;;;14.30;;
46411;SDS011;32113;42.012;24.870;2022-08-24T05:13:41;22.52;;;14.75;;
46411;SDS011;32113;42.012;24.870;2022-08-24T05:16:08;14.93;;;13.07;;
46411;SDS011;32113;42.012;24.870;2022-08-24T05:18:36;18.75;;;14.52;;
46411;SDS011;32113;42.012;24.870;2022-08-24T05:21:06;21.27;;;13.40;;
46411;SDS011;32113;42.012;24.870;2022-08-24T05:23:33;22.42;;;13.57;;
46411;SDS011;32113;42.012;24.870;2022-08-24T05:26:10;20.05;;;13.95;;
46411;SDS011;32113;42.012;24.870;2022-08-24T05:28:40;19.40;;;13.73;;
46411;SDS011;32113;42.012;24.870;2022-08-24T05:31:13;17.90;;;14.98;;
46411;SDS011;32113;42.012;24.870;2022-08-24T05:33:41;23.08;;;14.57;;
46411;SDS011;32113;42.012;24.870;2022-08-24T05:36:14;20.08;;;14.75;;
46411;SDS011;32113;42.012;24.870;2022-08-24T05:38:40;26.02;;;15.30;;
46411;SDS011;32113;42.012;24.870;2022-08-24T05:41:06;17.33;;;15.40;;
46411;SDS011;32113;42.012;24.870;2022-08-24T05:43:31;20.50;;;15.43;;
46411;SDS011;32113;42.012;24.870;2022-08-24T05:45:57;19.65;;;15.10;;
46411;SDS011;32113;42.012;24.870;2022-08-24T05:48:22;17.65;;;14.75;;
46411;SDS011;32113;42.012;24.870;2022-08-24T05:50:52;20.27;;;15.43;;
46411;SDS011;32113;42.012;24.870;2022-08-24T05:53:18;20.70;;;15.45;;
46411;SDS011;32113;42.012;24.870;2022-08-24T05:55:44;17.33;;;15.15;;
46411;SDS011;32113;42.012;24.870;2022-08-24T05:58:09;22.45;;;16.00;;
46411;SDS011;32113;42.012;24.870;2022-08-24T06:00:35;19.20;;;14.20;;
46411;SDS011;32113;42.012;24.870;2022-08-24T06:03:01;20.92;;;15.15;;
46411;SDS011;32113;42.012;24.870;2022-08-24T06:05:27;29.98;;;16.27;;
46411;SDS011;32113;42.012;24.870;2022-08-24T06:07:52;24.23;;;16.02;;
46411;SDS011;32113;42.012;24.870;2022-08-24T06:10:18;24.88;;;15.77;;
46411;SDS011;32113;42.012;24.870;2022-08-24T06:12:44;22.73;;;16.02;;
46411;SDS011;32113;42.012;24.870;2022-08-24T06:15:10;18.95;;;14.50;;
46411;SDS011;32113;42.012;24.870;2022-08-24T06:17:36;21.05;;;14.75;;
46411;SDS011;32113;42.012;24.870;2022-08-24T06:20:02;19.13;;;14.15;;
46411;SDS011;32113;42.012;24.870;2022-08-24T06:22:28;23.73;;;15.17;;
46411;SDS011;32113;42.012;24.870;2022-08-24T06:24:53;18.70;;;15.13;;
46411;SDS011;32113;42.012;24.870;2022-08-24T06:27:37;17.05;;;14.73;;
46411;SDS011;32113;42.012;24.870;2022-08-24T06:30:05;18.08;;;14.27;;
46411;SDS011;32113;42.012;24.870;2022-08-24T06:32:34;21.50;;;14.63;;
46411;SDS011;32113;42.012;24.870;2022-08-24T06:35:00;21.70;;;14.87;;
46411;SDS011;32113;42.012;24.870;2022-08-24T06:37:26;19.48;;;14.38;;
46411;SDS011;32113;42.012;24.870;2022-08-24T06:39:53;17.08;;;14.45;;
46411;SDS011;32113;42.012;24.870;2022-08-24T06:42:19;14.95;;;13.48;;
46411;SDS011;32113;42.012;24.870;2022-08-24T06:44:44;15.75;;;14.07;;
46411;SDS011;32113;42.012;24.870;2022-08-24T06:47:10;18.98;;;13.43;;
46411;SDS011;32113;42.012;24.870;2022-08-24T06:49:36;15.02;;;13.40;;
46411;SDS011;32113;42.012;24.870;2022-08-24T06:52:02;18.08;;;13.98;;
46411;SDS011;32113;42.012;24.870;2022-08-24T06:54:28;15.63;;;13.23;;
46411;SDS011;32113;42.012;24.870;2022-08-24T06:56:54;19.75;;;13.73;;
46411;SDS011;32113;42.012;24.870;2022-08-24T06:59:20;16.83;;;14.07;;
46411;SDS011;32113;42.012;24.870;2022-08-24T07:01:46;15.50;;;11.98;;
46411;SDS011;32113;42.012;24.870;2022-08-24T07:04:11;14.90;;;11.65;;
46411;SDS011;32113;42.012;24.870;2022-08-24T07:06:37;18.60;;;12.35;;
46411;SDS011;32113;42.012;24.870;2022-08-24T07:09:02;15.07;;;12.05;;
46411;SDS011;32113;42.012;24.870;2022-08-24T07:11:29;14.15;;;11.35;;
46411;SDS011;32113;42.012;24.870;2022-08-24T07:13:56;17.88;;;12.55;;
46411;SDS011;32113;42.012;24.870;2022-08-24T07:16:21;18.38;;;12.75;;
46411;SDS011;32113;42.012;24.870;2022-08-24T07:18:47;24.17;;;13.35;;
46411;SDS011;32113;42.012;24.870;2022-08-24T07:21:12;17.85;;;11.98;;
46411;SDS011;32113;42.012;24.870;2022-08-24T07:23:38;25.27;;;12.05;;
46411;SDS011;32113;42.012;24.870;2022-08-24T07:26:07;23.20;;;12.45;;
46411;SDS011;32113;42.012;24.870;2022-08-24T07:28:38;34.10;;;14.10;;
46411;SDS011;32113;42.012;24.870;2022-08-24T07:31:04;30.35;;;14.13;;
46411;SDS011;32113;42.012;24.870;2022-08-24T07:33:31;27.02;;;13.07;;
46411;SDS011;32113;42.012;24.870;2022-08-24T07:35:58;31.25;;;12.18;;
46411;SDS011;32113;42.012;24.870;2022-08-24T07:38:24;21.77;;;12.68;;
46411;SDS011;32113;42.012;24.870;2022-08-24T07:40:50;26.48;;;11.90;;
46411;SDS011;32113;42.012;24.870;2022-08-24T07:43:16;25.23;;;11.30;;
46411;SDS011;32113;42.012;24.870;2022-08-24T07:45:42;24.38;;;11.52;;
46411;SDS011;32113;42.012;24.870;2022-08-24T07:48:07;21.63;;;11.23;;
46411;SDS011;32113;42.012;24.870;2022-08-24T07:50:33;21.00;;;10.88;;
46411;SDS011;32113;42.012;24.870;2022-08-24T07:52:59;19.23;;;11.27;;
46411;SDS011;32113;42.012;24.870;2022-08-24T07:55:25;16.75;;;10.07;;
46411;SDS011;32113;42.012;24.870;2022-08-24T07:57:50;18.75;;;9.45;;
46411;SDS011;32113;42.012;24.870;2022-08-24T08:00:16;17.60;;;9.35;;
46411;SDS011;32113;42.012;24.870;2022-08-24T08:05:11;15.98;;;9.68;;
46411;SDS011;32113;42.012;24.870;2022-08-24T08:07:38;20.27;;;10.00;;
46411;SDS011;32113;42.012;24.870;2022-08-24T08:10:04;18.55;;;9.75;;
46411;SDS011;32113;42.012;24.870;2022-08-24T08:12:30;17.63;;;9.77;;
46411;SDS011;32113;42.012;24.870;2022-08-24T08:14:55;23.77;;;9.98;;
46411;SDS011;32113;42.012;24.870;2022-08-24T08:17:21;16.33;;;10.00;;
46411;SDS011;32113;42.012;24.870;2022-08-24T08:19:47;15.30;;;10.55;;
46411;SDS011;32113;42.012;24.870;2022-08-24T08:22:13;16.60;;;10.50;;
46411;SDS011;32113;42.012;24.870;2022-08-24T08:24:57;17.65;;;10.63;;
46411;SDS011;32113;42.012;24.870;2022-08-24T08:27:22;20.98;;;11.48;;
46411;SDS011;32113;42.012;24.870;2022-08-24T08:29:49;15.43;;;10.60;;
46411;SDS011;32113;42.012;24.870;2022-08-24T08:32:15;14.63;;;10.30;;
46411;SDS011;32113;42.012;24.870;2022-08-24T08:34:42;11.98;;;10.60;;
46411;SDS011;32113;42.012;24.870;2022-08-24T08:37:08;12.40;;;9.70;;
46411;SDS011;32113;42.012;24.870;2022-08-24T08:39:34;14.52;;;10.07;;
46411;SDS011;32113;42.012;24.870;2022-08-24T08:42:03;17.10;;;9.32;;
46411;SDS011;32113;42.012;24.870;2022-08-24T08:50:20;13.90;;;9.52;;
46411;SDS011;32113;42.012;24.870;2022-08-24T08:56:33;12.80;;;8.68;;
46411;SDS011;32113;42.012;24.870;2022-08-24T09:12:49;15.25;;;7.80;;
46411;SDS011;32113;42.012;24.870;2022-08-24T09:27:03;11.35;;;7.25;;
46411;SDS011;32113;42.012;24.870;2022-08-24T09:29:42;14.90;;;7.55;;
46411;SDS011;32113;42.012;24.870;2022-08-24T09:32:27;9.77;;;7.43;;
46411;SDS011;32113;42.012;24.870;2022-08-24T09:38:12;23.90;;;8.65;;
46411;SDS011;32113;42.012;24.870;2022-08-24T10:14:08;10.95;;;5.07;;
46411;SDS011;32113;42.012;24.870;2022-08-24T10:30:36;14.88;;;5.60;;
46411;SDS011;32113;42.012;24.870;2022-08-24T10:33:11;8.65;;;4.82;;
46411;SDS011;32113;42.012;24.870;2022-08-24T10:47:33;13.05;;;5.22;;
46411;SDS011;32113;42.012;24.870;2022-08-24T10:52:52;15.38;;;4.65;;
46411;SDS011;32113;42.012;24.870;2022-08-24T10:55:37;11.45;;;4.80;;
46411;SDS011;32113;42.012;24.870;2022-08-24T10:58:09;18.95;;;5.55;;
46411;SDS011;32113;42.012;24.870;2022-08-24T11:00:47;17.80;;;4.85;;
46411;SDS011;32113;42.012;24.870;2022-08-24T11:03:14;12.73;;;4.82;;
46411;SDS011;32113;42.012;24.870;2022-08-24T11:05:48;15.93;;;4.57;;
46411;SDS011;32113;42.012;24.870;2022-08-24T11:08:22;14.65;;;6.68;;
46411;SDS011;32113;42.012;24.870;2022-08-24T11:11:09;17.15;;;4.68;;
46411;SDS011;32113;42.012;24.870;2022-08-24T11:14:06;20.40;;;5.72;;
46411;SDS011;32113;42.012;24.870;2022-08-24T11:16:36;13.38;;;4.70;;
46411;SDS011;32113;42.012;24.870;2022-08-24T11:19:05;20.23;;;5.18;;
46411;SDS011;32113;42.012;24.870;2022-08-24T11:24:07;16.50;;;5.22;;
46411;SDS011;32113;42.012;24.870;2022-08-24T11:40:43;14.45;;;4.93;;
46411;SDS011;32113;42.012;24.870;2022-08-24T11:43:31;22.33;;;5.22;;
46411;SDS011;32113;42.012;24.870;2022-08-24T11:49:29;19.70;;;5.30;;
46411;SDS011;32113;42.012;24.870;2022-08-24T12:00:11;21.50;;;5.20;;
46411;SDS011;32113;42.012;24.870;2022-08-24T12:08:10;14.70;;;4.85;;
46411;SDS011;32113;42.012;24.870;2022-08-24T12:16:32;20.02;;;5.28;;
46411;SDS011;32113;42.012;24.870;2022-08-24T12:19:16;14.93;;;4.82;;
46411;SDS011;32113;42.012;24.870;2022-08-24T12:21:47;19.73;;;5.82;;
46411;SDS011;32113;42.012;24.870;2022-08-24T12:24:21;15.40;;;5.88;;
46411;SDS011;32113;42.012;24.870;2022-08-24T12:45:35;21.55;;;5.43;;
46411;SDS011;32113;42.012;24.870;2022-08-24T12:48:06;12.52;;;4.90;;
46411;SDS011;32113;42.012;24.870;2022-08-24T12:59:00;14.75;;;5.38;;
46411;SDS011;32113;42.012;24.870;2022-08-24T13:01:28;17.63;;;5.57;;
46411;SDS011;32113;42.012;24.870;2022-08-24T13:04:02;15.82;;;5.43;;
46411;SDS011;32113;42.012;24.870;2022-08-24T13:06:51;17.83;;;5.57;;
46411;SDS011;32113;42.012;24.870;2022-08-24T13:11:57;22.35;;;6.07;;
46411;SDS011;32113;42.012;24.870;2022-08-24T13:14:26;18.65;;;5.55;;
46411;SDS011;32113;42.012;24.870;2022-08-24T13:21:48;19.15;;;6.28;;
46411;SDS011;32113;42.012;24.870;2022-08-24T13:26:54;20.55;;;5.45;;
46411;SDS011;32113;42.012;24.870;2022-08-24T13:31:49;20.80;;;5.10;;
46411;SDS011;32113;42.012;24.870;2022-08-24T13:36:48;20.55;;;5.20;;
46411;SDS011;32113;42.012;24.870;2022-08-24T13:56:37;19.17;;;6.10;;
46411;SDS011;32113;42.012;24.870;2022-08-24T14:05:16;12.40;;;4.93;;
46411;SDS011;32113;42.012;24.870;2022-08-24T14:07:47;21.65;;;5.50;;
46411;SDS011;32113;42.012;24.870;2022-08-24T14:21:20;14.63;;;5.78;;
46411;SDS011;32113;42.012;24.870;2022-08-24T14:34:15;15.93;;;5.50;;
46411;SDS011;32113;42.012;24.870;2022-08-24T14:36:51;20.63;;;5.50;;
46411;SDS011;32113;42.012;24.870;2022-08-24T14:39:38;17.65;;;7.43;;
46411;SDS011;32113;42.012;24.870;2022-08-24T14:42:32;22.58;;;7.63;;
46411;SDS011;32113;42.012;24.870;2022-08-24T14:47:41;17.60;;;6.18;;
46411;SDS011;32113;42.012;24.870;2022-08-24T14:50:15;19.73;;;6.75;;
46411;SDS011;32113;42.012;24.870;2022-08-24T14:56:06;20.40;;;6.43;;
46411;SDS011;32113;42.012;24.870;2022-08-24T15:07:33;23.70;;;6.22;;
46411;SDS011;32113;42.012;24.870;2022-08-24T15:10:01;27.38;;;5.95;;
46411;SDS011;32113;42.012;24.870;2022-08-24T15:12:46;32.22;;;5.68;;
46411;SDS011;32113;42.012;24.870;2022-08-24T15:15:26;24.27;;;6.47;;
46411;SDS011;32113;42.012;24.870;2022-08-24T15:20:45;28.63;;;6.28;;
46411;SDS011;32113;42.012;24.870;2022-08-24T15:23:24;45.55;;;6.90;;
46411;SDS011;32113;42.012;24.870;2022-08-24T15:26:11;34.08;;;6.60;;
46411;SDS011;32113;42.012;24.870;2022-08-24T15:28:39;29.23;;;6.05;;
46411;SDS011;32113;42.012;24.870;2022-08-24T15:31:17;26.80;;;5.95;;
46411;SDS011;32113;42.012;24.870;2022-08-24T15:33:54;28.05;;;6.38;;
46411;SDS011;32113;42.012;24.870;2022-08-24T15:36:22;25.73;;;5.88;;
46411;SDS011;32113;42.012;24.870;2022-08-24T15:38:47;27.67;;;6.70;;
46411;SDS011;32113;42.012;24.870;2022-08-24T15:41:20;33.10;;;6.35;;
46411;SDS011;32113;42.012;24.870;2022-08-24T15:44:02;30.58;;;7.55;;
46411;SDS011;32113;42.012;24.870;2022-08-24T15:46:49;24.85;;;6.00;;
46411;SDS011;32113;42.012;24.870;2022-08-24T15:49:24;34.80;;;6.97;;
46411;SDS011;32113;42.012;24.870;2022-08-24T15:51:54;33.35;;;7.20;;
46411;SDS011;32113;42.012;24.870;2022-08-24T15:56:55;27.98;;;7.75;;
46411;SDS011;32113;42.012;24.870;2022-08-24T16:04:51;23.48;;;6.57;;
46411;SDS011;32113;42.012;24.870;2022-08-24T16:07:28;33.47;;;6.35;;
46411;SDS011;32113;42.012;24.870;2022-08-24T16:10:03;27.65;;;6.03;;
46411;SDS011;32113;42.012;24.870;2022-08-24T16:12:34;30.67;;;7.40;;
46411;SDS011;32113;42.012;24.870;2022-08-24T16:15:18;25.83;;;6.33;;
46411;SDS011;32113;42.012;24.870;2022-08-24T16:20:27;30.02;;;7.45;;
46411;SDS011;32113;42.012;24.870;2022-08-24T16:23:03;30.10;;;7.22;;
46411;SDS011;32113;42.012;24.870;2022-08-24T16:25:34;35.60;;;6.50;;
46411;SDS011;32113;42.012;24.870;2022-08-24T16:33:37;35.78;;;8.32;;
46411;SDS011;32113;42.012;24.870;2022-08-24T16:36:06;30.52;;;7.97;;
46411;SDS011;32113;42.012;24.870;2022-08-24T16:38:34;29.83;;;7.20;;
46411;SDS011;32113;42.012;24.870;2022-08-24T16:41:06;33.65;;;7.63;;
46411;SDS011;32113;42.012;24.870;2022-08-24T16:43:34;38.28;;;6.68;;
46411;SDS011;32113;42.012;24.870;2022-08-24T16:48:27;33.30;;;6.57;;
46411;SDS011;32113;42.012;24.870;2022-08-24T16:50:53;28.20;;;7.35;;
46411;SDS011;32113;42.012;24.870;2022-08-24T16:53:20;34.17;;;7.07;;
46411;SDS011;32113;42.012;24.870;2022-08-24T16:55:46;25.75;;;6.72;;
46411;SDS011;32113;42.012;24.870;2022-08-24T16:58:12;30.88;;;7.45;;
46411;SDS011;32113;42.012;24.870;2022-08-24T17:00:38;39.35;;;7.75;;
46411;SDS011;32113;42.012;24.870;2022-08-24T17:03:04;31.73;;;7.32;;
46411;SDS011;32113;42.012;24.870;2022-08-24T17:05:30;42.25;;;8.30;;
46411;SDS011;32113;42.012;24.870;2022-08-24T17:07:57;38.17;;;7.28;;
46411;SDS011;32113;42.012;24.870;2022-08-24T17:10:24;31.80;;;7.78;;
46411;SDS011;32113;42.012;24.870;2022-08-24T17:12:50;33.70;;;7.28;;
46411;SDS011;32113;42.012;24.870;2022-08-24T17:15:15;28.88;;;7.13;;
46411;SDS011;32113;42.012;24.870;2022-08-24T17:17:42;33.10;;;7.90;;
46411;SDS011;32113;42.012;24.870;2022-08-24T17:20:12;30.75;;;7.82;;
46411;SDS011;32113;42.012;24.870;2022-08-24T17:22:37;30.50;;;7.45;;
46411;SDS011;32113;42.012;24.870;2022-08-24T17:25:03;28.85;;;6.93;;
46411;SDS011;32113;42.012;24.870;2022-08-24T17:27:30;29.63;;;6.63;;
46411;SDS011;32113;42.012;24.870;2022-08-24T17:29:57;29.20;;;7.65;;
46411;SDS011;32113;42.012;24.870;2022-08-24T17:32:24;30.02;;;7.38;;
46411;SDS011;32113;42.012;24.870;2022-08-24T17:34:50;36.03;;;8.48;;
46411;SDS011;32113;42.012;24.870;2022-08-24T17:37:16;27.58;;;7.75;;
46411;SDS011;32113;42.012;24.870;2022-08-24T17:39:42;26.92;;;8.00;;
46411;SDS011;32113;42.012;24.870;2022-08-24T17:42:08;36.03;;;8.23;;
46411;SDS011;32113;42.012;24.870;2022-08-24T17:44:33;29.73;;;7.82;;
46411;SDS011;32113;42.012;24.870;2022-08-24T17:47:01;35.60;;;8.48;;
46411;SDS011;32113;42.012;24.870;2022-08-24T17:49:27;34.28;;;8.60;;
46411;SDS011;32113;42.012;24.870;2022-08-24T17:51:55;35.55;;;8.63;;
46411;SDS011;32113;42.012;24.870;2022-08-24T17:54:21;28.73;;;8.67;;
46411;SDS011;32113;42.012;24.870;2022-08-24T17:56:48;30.75;;;7.40;;
46411;SDS011;32113;42.012;24.870;2022-08-24T17:59:15;25.67;;;8.18;;
46411;SDS011;32113;42.012;24.870;2022-08-24T18:01:49;35.40;;;8.40;;
46411;SDS011;32113;42.012;24.870;2022-08-24T18:04:20;26.38;;;7.25;;
46411;SDS011;32113;42.012;24.870;2022-08-24T18:06:49;30.50;;;7.68;;
46411;SDS011;32113;42.012;24.870;2022-08-24T18:09:57;30.27;;;6.72;;
46411;SDS011;32113;42.012;24.870;2022-08-24T18:12:06;38.67;;;7.05;;
46411;SDS011;32113;42.012;24.870;2022-08-24T18:14:33;27.98;;;7.13;;
46411;SDS011;32113;42.012;24.870;2022-08-24T18:17:00;28.60;;;6.60;;
46411;SDS011;32113;42.012;24.870;2022-08-24T18:19:29;38.47;;;7.75;;
46411;SDS011;32113;42.012;24.870;2022-08-24T18:21:56;30.40;;;7.10;;
46411;SDS011;32113;42.012;24.870;2022-08-24T18:24:21;28.40;;;7.05;;
46411;SDS011;32113;42.012;24.870;2022-08-24T18:26:47;32.25;;;7.57;;
46411;SDS011;32113;42.012;24.870;2022-08-24T18:29:14;26.45;;;6.53;;
46411;SDS011;32113;42.012;24.870;2022-08-24T18:31:42;36.35;;;7.65;;
46411;SDS011;32113;42.012;24.870;2022-08-24T18:34:09;26.23;;;6.40;;
46411;SDS011;32113;42.012;24.870;2022-08-24T18:36:39;32.58;;;6.47;;
46411;SDS011;32113;42.012;24.870;2022-08-24T18:39:05;23.08;;;5.82;;
46411;SDS011;32113;42.012;24.870;2022-08-24T18:41:32;42.50;;;7.53;;
46411;SDS011;32113;42.012;24.870;2022-08-24T18:44:02;35.55;;;6.85;;
46411;SDS011;32113;42.012;24.870;2022-08-24T18:46:30;37.50;;;7.72;;
46411;SDS011;32113;42.012;24.870;2022-08-24T18:48:57;23.20;;;6.63;;
46411;SDS011;32113;42.012;24.870;2022-08-24T18:51:23;33.63;;;6.90;;
46411;SDS011;32113;42.012;24.870;2022-08-24T18:53:49;27.58;;;6.55;;
46411;SDS011;32113;42.012;24.870;2022-08-24T18:56:19;28.30;;;6.97;;
46411;SDS011;32113;42.012;24.870;2022-08-24T18:58:44;28.90;;;5.78;;